createdAt,value
2023-02-03T00:00:15.714Z,98518.47
2023-02-03T00:02:42.657Z,98519.19
2023-02-03T00:05:10.413Z,98524.28
2023-02-03T00:07:37.537Z,98519.47
2023-02-03T00:10:04.254Z,98515.41
2023-02-03T00:12:30.881Z,98519.59
2023-02-03T00:14:57.498Z,98507.94
2023-02-03T00:17:24.130Z,98510.03
2023-02-03T00:19:50.698Z,98520.38
2023-02-03T00:22:17.377Z,98516.66
2023-02-03T00:24:44.048Z,98512.50
2023-02-03T00:27:10.609Z,98512.59
2023-02-03T00:29:37.193Z,98518.78
2023-02-03T00:32:04.016Z,98506.09
2023-02-03T00:34:30.639Z,98507.59
2023-02-03T00:36:57.227Z,98511.34
2023-02-03T00:39:25.054Z,98511.78
2023-02-03T00:41:51.623Z,98506.44
2023-02-03T00:44:18.252Z,98508.44
2023-02-03T00:46:44.930Z,98507.09
2023-02-03T00:49:11.483Z,98502.50
2023-02-03T00:51:38.205Z,98502.66
2023-02-03T00:54:04.756Z,98498.06
2023-02-03T00:56:31.295Z,98505.16
2023-02-03T00:58:57.863Z,98495.41
2023-02-03T01:01:24.438Z,98496.66
2023-02-03T01:03:51.105Z,98494.56
2023-02-03T01:06:20.750Z,98495.50
2023-02-03T01:08:47.638Z,98500.69
2023-02-03T01:11:15.995Z,98505.25
2023-02-03T01:13:44.064Z,98502.81
2023-02-03T01:16:11.228Z,98509.13
2023-02-03T01:18:38.071Z,98506.69
2023-02-03T01:21:09.110Z,98506.63
2023-02-03T01:23:36.346Z,98509.59
2023-02-03T01:26:06.659Z,98511.09
2023-02-03T01:28:33.216Z,98521.91
2023-02-03T01:31:10.467Z,98516.44
2023-02-03T01:33:37.133Z,98523.59
2023-02-03T01:36:03.830Z,98532.91
2023-02-03T01:38:30.386Z,98540.00
2023-02-03T01:40:56.970Z,98539.78
2023-02-03T01:43:33.492Z,98538.69
2023-02-03T01:46:01.210Z,98535.63
2023-02-03T01:48:27.781Z,98545.47
2023-02-03T01:50:54.386Z,98543.78
2023-02-03T01:53:21.109Z,98546.78
2023-02-03T01:55:48.455Z,98544.91
2023-02-03T01:58:18.749Z,98551.47
2023-02-03T02:00:45.317Z,98551.38
2023-02-03T02:03:11.967Z,98550.97
2023-02-03T02:06:00.340Z,98549.41
2023-02-03T02:08:26.878Z,98546.25
2023-02-03T02:10:53.472Z,98532.56
2023-02-03T02:13:20.033Z,98535.06
2023-02-03T02:16:29.594Z,98535.00
2023-02-03T02:19:15.778Z,98532.47
2023-02-03T02:22:00.948Z,98535.47
2023-02-03T02:25:08.771Z,98533.16
2023-02-03T02:27:50.122Z,98533.28
2023-02-03T02:30:55.620Z,98550.81
2023-02-03T02:33:27.832Z,98552.72
2023-02-03T02:36:24.289Z,98545.47
2023-02-03T02:38:59.326Z,98538.22
2023-02-03T02:41:35.909Z,98536.53
2023-02-03T02:44:13.025Z,98539.16
2023-02-03T02:46:42.347Z,98541.66
2023-02-03T02:49:13.307Z,98546.41
2023-02-03T02:51:39.859Z,98544.28
2023-02-03T02:54:08.151Z,98550.72
2023-02-03T02:56:34.886Z,98541.53
2023-02-03T02:59:02.247Z,98535.25
2023-02-03T03:01:28.840Z,98533.59
2023-02-03T03:03:55.504Z,98536.13
2023-02-03T03:06:27.770Z,98525.41
2023-02-03T03:09:06.016Z,98523.97
2023-02-03T03:11:33.913Z,98523.91
2023-02-03T03:14:00.477Z,98532.38
2023-02-03T03:16:27.598Z,98530.13
2023-02-03T03:19:02.731Z,98534.28
2023-02-03T03:21:32.681Z,98530.69
2023-02-03T03:23:59.822Z,98529.31
2023-02-03T03:26:39.729Z,98534.03
2023-02-03T03:29:16.410Z,98535.47
2023-02-03T03:31:43.010Z,98524.69
2023-02-03T03:34:09.799Z,98517.78
2023-02-03T03:36:44.148Z,98529.31
2023-02-03T03:39:15.337Z,98532.66
2023-02-03T03:41:50.122Z,98527.31
2023-02-03T03:44:16.664Z,98525.28
2023-02-03T03:46:51.339Z,98528.00
2023-02-03T03:49:17.990Z,98532.81
2023-02-03T03:51:47.865Z,98525.53
2023-02-03T03:54:19.229Z,98522.88
2023-02-03T03:57:02.311Z,98525.44
2023-02-03T03:59:30.747Z,98523.66
2023-02-03T04:01:57.904Z,98514.34
2023-02-03T04:04:24.605Z,98523.66
2023-02-03T04:06:53.406Z,98518.50
2023-02-03T04:09:19.980Z,98515.13
2023-02-03T04:11:46.556Z,98510.63
2023-02-03T04:14:13.307Z,98502.44
2023-02-03T04:16:39.925Z,98511.41
2023-02-03T04:19:08.453Z,98501.94
2023-02-03T04:21:35.200Z,98494.63
2023-02-03T04:24:01.779Z,98495.97
2023-02-03T04:26:28.555Z,98488.75
2023-02-03T04:28:55.099Z,98491.19
2023-02-03T04:31:21.728Z,98490.38
2023-02-03T04:33:48.453Z,98490.13
2023-02-03T04:36:15.072Z,98490.22
2023-02-03T04:38:41.689Z,98480.06
2023-02-03T04:41:08.463Z,98472.41
2023-02-03T04:43:35.035Z,98464.34
2023-02-03T04:46:01.655Z,98477.41
2023-02-03T04:48:28.254Z,98463.88
2023-02-03T04:50:54.851Z,98448.09
2023-02-03T04:53:21.438Z,98439.53
2023-02-03T04:55:48.195Z,98447.78
2023-02-03T04:58:14.784Z,98438.94
2023-02-03T05:00:41.337Z,98456.25
2023-02-03T05:03:07.953Z,98450.25
2023-02-03T05:05:34.521Z,98448.69
2023-02-03T05:08:01.107Z,98448.53
2023-02-03T05:10:27.816Z,98455.22
2023-02-03T05:12:54.517Z,98455.06
2023-02-03T05:15:21.150Z,98456.25
2023-02-03T05:17:47.704Z,98462.72
2023-02-03T05:20:14.261Z,98465.84
2023-02-03T05:22:40.805Z,98471.38
2023-02-03T05:25:07.858Z,98467.09
2023-02-03T05:27:34.441Z,98464.59
2023-02-03T05:30:01.020Z,98461.75
2023-02-03T05:32:27.566Z,98456.88
2023-02-03T05:34:54.131Z,98447.53
2023-02-03T05:37:20.677Z,98446.69
2023-02-03T05:39:47.226Z,98446.28
2023-02-03T05:42:13.766Z,98451.53
2023-02-03T05:44:40.314Z,98448.88
2023-02-03T05:47:06.867Z,98458.56
2023-02-03T05:49:33.415Z,98466.41
2023-02-03T05:51:59.988Z,98469.47
2023-02-03T05:54:26.538Z,98465.59
2023-02-03T05:56:53.113Z,98476.81
2023-02-03T05:59:19.712Z,98477.53
2023-02-03T06:01:46.256Z,98484.00
2023-02-03T06:04:12.852Z,98483.19
2023-02-03T06:06:39.469Z,98485.28
2023-02-03T06:09:07.113Z,98485.56
2023-02-03T06:11:33.778Z,98495.22
2023-02-03T06:14:00.333Z,98500.56
2023-02-03T06:16:27.193Z,98500.28
2023-02-03T06:18:54.060Z,98508.41
2023-02-03T06:21:21.069Z,98515.69
2023-02-03T06:23:47.646Z,98516.13
2023-02-03T06:26:14.216Z,98520.75
2023-02-03T06:28:40.812Z,98530.97
2023-02-03T06:31:07.444Z,98532.94
2023-02-03T06:33:34.098Z,98529.56
2023-02-03T06:36:00.677Z,98539.66
2023-02-03T06:38:27.225Z,98532.25
2023-02-03T06:40:53.889Z,98517.84
2023-02-03T06:43:20.474Z,98513.88
2023-02-03T06:45:47.034Z,98518.09
2023-02-03T06:48:13.845Z,98513.88
2023-02-03T06:50:40.708Z,98510.94
2023-02-03T06:53:07.321Z,98519.34
2023-02-03T06:55:33.875Z,98524.81
2023-02-03T06:58:00.635Z,98535.75
2023-02-03T07:00:27.445Z,98540.91
2023-02-03T07:02:55.200Z,98529.31
2023-02-03T07:05:22.297Z,98529.59
2023-02-03T07:07:48.836Z,98529.03
2023-02-03T07:10:15.497Z,98526.34
2023-02-03T07:12:42.118Z,98519.81
2023-02-03T07:15:09.205Z,98519.81
2023-02-03T07:17:35.751Z,98516.41
2023-02-03T07:20:02.382Z,98514.75
2023-02-03T07:22:28.993Z,98505.94
2023-02-03T07:24:55.727Z,98500.47
2023-02-03T07:27:23.350Z,98511.25
2023-02-03T07:29:49.888Z,98502.56
2023-02-03T07:32:16.426Z,98501.03
2023-02-03T07:34:42.957Z,98505.50
2023-02-03T07:37:09.517Z,98504.66
2023-02-03T07:39:36.066Z,98502.72
2023-02-03T07:42:02.627Z,98512.78
2023-02-03T07:44:29.193Z,98516.56
2023-02-03T07:46:55.795Z,98522.31
2023-02-03T07:49:22.383Z,98521.88
2023-02-03T07:51:48.942Z,98535.44
2023-02-03T07:54:15.487Z,98544.53
2023-02-03T07:56:42.802Z,98555.34
2023-02-03T07:59:09.371Z,98556.44
2023-02-03T08:01:35.911Z,98562.72
2023-02-03T08:04:02.524Z,98554.63
2023-02-03T08:06:29.074Z,98545.53
2023-02-03T08:08:55.666Z,98559.38
2023-02-03T08:11:22.199Z,98548.16
2023-02-03T08:13:48.755Z,98550.84
2023-02-03T08:16:15.338Z,98554.03
2023-02-03T08:18:41.941Z,98550.25
2023-02-03T08:21:08.502Z,98553.16
2023-02-03T08:23:35.069Z,98560.19
2023-02-03T08:26:01.628Z,98570.69
2023-02-03T08:28:28.234Z,98578.53
2023-02-03T08:30:54.854Z,98581.69
2023-02-03T08:33:21.513Z,98567.41
2023-02-03T08:35:49.110Z,98566.25
2023-02-03T08:38:15.890Z,98568.19
2023-02-03T08:40:42.541Z,98578.38
2023-02-03T08:43:09.151Z,98593.63
2023-02-03T08:45:35.824Z,98597.88
2023-02-03T08:48:02.484Z,98591.44
2023-02-03T08:50:29.398Z,98575.41
2023-02-03T08:52:56.237Z,98578.34
2023-02-03T08:55:22.875Z,98581.13
2023-02-03T08:57:49.522Z,98587.13
2023-02-03T09:00:16.492Z,98592.00
2023-02-03T09:02:43.145Z,98607.94
2023-02-03T09:05:10.006Z,98604.72
2023-02-03T09:07:36.698Z,98607.28
2023-02-03T09:10:03.635Z,98592.63
2023-02-03T09:12:30.332Z,98592.75
2023-02-03T09:14:56.924Z,98599.16
2023-02-03T09:17:23.595Z,98593.59
2023-02-03T09:19:50.282Z,98588.63
2023-02-03T09:22:18.781Z,98588.25
2023-02-03T09:24:45.483Z,98581.84
2023-02-03T09:27:12.121Z,98585.38
2023-02-03T09:29:38.761Z,98587.09
2023-02-03T09:32:05.498Z,98590.00
2023-02-03T09:34:32.104Z,98587.19
2023-02-03T09:36:58.746Z,98584.75
2023-02-03T09:39:25.399Z,98590.75
2023-02-03T09:42:00.136Z,98585.72
2023-02-03T09:44:27.465Z,98593.88
2023-02-03T09:46:59.278Z,98594.47
2023-02-03T09:49:29.295Z,98597.44
2023-02-03T09:51:57.820Z,98593.75
2023-02-03T09:54:43.062Z,98595.63
2023-02-03T09:57:15.736Z,98598.38
2023-02-03T09:59:42.410Z,98592.38
2023-02-03T10:02:33.620Z,98593.59
2023-02-03T10:05:20.390Z,98580.97
2023-02-03T10:08:48.869Z,98570.81
2023-02-03T10:11:50.215Z,98570.16
2023-02-03T10:15:00.931Z,98575.09
2023-02-03T10:17:37.978Z,98566.28
2023-02-03T10:20:18.403Z,98578.00
2023-02-03T10:23:11.991Z,98574.38
2023-02-03T10:25:41.482Z,98567.00
2023-02-03T10:28:16.771Z,98569.56
2023-02-03T10:30:46.215Z,98575.44
2023-02-03T10:33:17.516Z,98573.94
2023-02-03T10:35:55.761Z,98572.75
2023-02-03T10:38:58.203Z,98570.25
2023-02-03T10:41:24.949Z,98568.94
2023-02-03T10:43:52.113Z,98569.59
2023-02-03T10:46:27.790Z,98564.59
2023-02-03T10:48:54.541Z,98557.38
2023-02-03T10:51:23.456Z,98561.72
2023-02-03T10:53:50.303Z,98555.38
2023-02-03T10:56:17.076Z,98541.78
2023-02-03T10:59:05.909Z,98548.31
2023-02-03T11:01:39.994Z,98538.59
2023-02-03T11:04:07.715Z,98534.59
2023-02-03T11:06:34.396Z,98539.13
2023-02-03T11:09:01.021Z,98533.25
2023-02-03T11:11:31.726Z,98527.03
2023-02-03T11:14:04.494Z,98527.19
2023-02-03T11:16:32.874Z,98532.19
2023-02-03T11:19:03.398Z,98536.75
2023-02-03T11:21:39.148Z,98532.84
2023-02-03T11:24:24.161Z,98532.88
2023-02-03T11:27:19.968Z,98530.84
2023-02-03T11:29:47.718Z,98534.41
2023-02-03T11:32:27.808Z,98535.72
2023-02-03T11:34:57.248Z,98533.22
2023-02-03T11:37:33.404Z,98532.72
2023-02-03T11:40:08.959Z,98536.56
2023-02-03T11:42:36.332Z,98533.84
2023-02-03T11:45:18.075Z,98530.34
2023-02-03T11:47:46.806Z,98518.72
2023-02-03T11:50:31.102Z,98516.72
2023-02-03T11:53:10.326Z,98513.53
2023-02-03T11:55:46.073Z,98514.00
2023-02-03T11:58:17.391Z,98512.19
2023-02-03T12:00:56.166Z,98502.16
2023-02-03T12:03:44.276Z,98505.50
2023-02-03T12:06:51.962Z,98511.06
2023-02-03T12:09:34.269Z,98498.16
2023-02-03T12:12:20.706Z,98503.00
2023-02-03T12:14:49.546Z,98497.75
2023-02-03T12:17:26.215Z,98484.97
2023-02-03T12:20:19.075Z,98478.06
2023-02-03T12:22:57.371Z,98480.75
2023-02-03T12:25:59.051Z,98474.69
2023-02-03T12:28:33.585Z,98470.47
2023-02-03T12:31:23.632Z,98471.66
2023-02-03T12:33:52.725Z,98467.94
2023-02-03T12:36:22.648Z,98463.78
2023-02-03T12:39:24.336Z,98459.44
2023-02-03T12:42:18.151Z,98460.94
2023-02-03T12:44:48.839Z,98467.41
2023-02-03T12:47:26.500Z,98459.03
2023-02-03T12:50:44.087Z,98456.69
2023-02-03T12:53:14.595Z,98450.97
2023-02-03T12:55:46.398Z,98430.56
2023-02-03T12:58:58.566Z,98438.84
2023-02-03T13:01:43.244Z,98435.50
2023-02-03T13:04:09.771Z,98435.13
2023-02-03T13:06:55.067Z,98436.53
2023-02-03T13:09:28.957Z,98425.91
2023-02-03T13:12:03.620Z,98425.03
2023-02-03T13:14:36.647Z,98413.81
2023-02-03T13:17:28.355Z,98422.34
2023-02-03T13:20:00.323Z,98414.13
2023-02-03T13:22:27.050Z,98406.50
2023-02-03T13:25:05.084Z,98407.59
2023-02-03T13:27:52.628Z,98402.66
2023-02-03T13:30:50.372Z,98402.25
2023-02-03T13:33:44.615Z,98397.53
2023-02-03T13:36:16.978Z,98396.22
2023-02-03T13:38:52.325Z,98396.31
2023-02-03T13:41:26.977Z,98398.16
2023-02-03T13:43:53.654Z,98403.78
2023-02-03T13:46:28.552Z,98401.81
2023-02-03T13:48:56.118Z,98401.22
2023-02-03T13:51:24.398Z,98399.47
2023-02-03T13:53:51.362Z,98399.19
2023-02-03T13:56:24.567Z,98392.34
2023-02-03T13:59:04.463Z,98390.47
2023-02-03T14:01:38.254Z,98380.41
2023-02-03T14:04:08.659Z,98375.31
2023-02-03T14:06:38.294Z,98380.25
2023-02-03T14:09:20.700Z,98385.25
2023-02-03T14:11:51.970Z,98394.63
2023-02-03T14:14:18.501Z,98404.78
2023-02-03T14:16:52.668Z,98406.81
2023-02-03T14:19:30.143Z,98401.25
2023-02-03T14:22:01.783Z,98405.97
2023-02-03T14:24:32.120Z,98397.16
2023-02-03T14:26:58.848Z,98395.31
2023-02-03T14:29:32.492Z,98400.84
2023-02-03T14:32:12.078Z,98395.13
2023-02-03T14:34:43.115Z,98395.97
2023-02-03T14:37:15.707Z,98396.88
2023-02-03T14:40:08.423Z,98395.84
2023-02-03T14:43:11.973Z,98406.66
2023-02-03T14:46:14.826Z,98402.59
2023-02-03T14:49:12.122Z,98389.91
2023-02-03T14:52:03.042Z,98384.25
2023-02-03T14:54:54.137Z,98373.41
2023-02-03T14:57:48.163Z,98376.00
2023-02-03T15:00:20.789Z,98378.31
2023-02-03T15:03:09.131Z,98379.31
2023-02-03T15:05:39.536Z,98373.81
2023-02-03T15:08:38.970Z,98377.69
2023-02-03T15:11:28.591Z,98377.19
2023-02-03T15:13:56.708Z,98372.56
2023-02-03T15:16:24.475Z,98355.50
2023-02-03T15:19:03.429Z,98347.91
2023-02-03T15:21:30.091Z,98348.41
2023-02-03T15:23:56.687Z,98338.31
2023-02-03T15:26:24.763Z,98347.44
2023-02-03T15:28:58.011Z,98343.28
2023-02-03T15:31:33.428Z,98346.78
2023-02-03T15:34:04.014Z,98344.78
2023-02-03T15:36:45.417Z,98333.53
2023-02-03T15:39:17.903Z,98344.81
2023-02-03T15:41:44.497Z,98347.84
2023-02-03T15:44:34.981Z,98350.78
2023-02-03T15:47:02.458Z,98352.81
2023-02-03T15:49:39.070Z,98355.72
2023-02-03T15:52:32.062Z,98348.88
2023-02-03T15:55:06.199Z,98347.75
2023-02-03T15:57:33.116Z,98351.16
2023-02-03T16:00:12.585Z,98346.41
2023-02-03T16:02:41.959Z,98338.69
2023-02-03T16:05:22.540Z,98346.59
2023-02-03T16:07:49.187Z,98360.84
2023-02-03T16:10:26.012Z,98363.41
2023-02-03T16:12:52.687Z,98362.06
2023-02-03T16:15:23.644Z,98372.78
2023-02-03T16:17:55.109Z,98368.00
2023-02-03T16:20:26.046Z,98365.53
2023-02-03T16:23:18.089Z,98363.13
2023-02-03T16:25:44.743Z,98372.88
2023-02-03T16:28:16.542Z,98378.41
2023-02-03T16:31:14.657Z,98379.38
2023-02-03T16:33:52.635Z,98390.63
2023-02-03T16:36:19.251Z,98395.28
2023-02-03T16:38:46.797Z,98400.69
2023-02-03T16:41:16.345Z,98398.84
2023-02-03T16:43:42.996Z,98398.53
2023-02-03T16:46:11.199Z,98396.50
2023-02-03T16:48:37.818Z,98393.03
2023-02-03T16:51:07.044Z,98393.88
2023-02-03T16:53:33.765Z,98404.91
2023-02-03T16:56:01.515Z,98407.25
2023-02-03T16:58:28.120Z,98418.81
2023-02-03T17:00:55.385Z,98419.50
2023-02-03T17:03:24.097Z,98413.31
2023-02-03T17:05:51.014Z,98419.16
2023-02-03T17:08:19.578Z,98425.50
2023-02-03T17:10:46.213Z,98423.19
2023-02-03T17:13:12.798Z,98432.34
2023-02-03T17:15:42.499Z,98437.00
2023-02-03T17:18:09.158Z,98435.31
2023-02-03T17:20:35.821Z,98421.75
2023-02-03T17:23:02.614Z,98430.63
2023-02-03T17:25:29.678Z,98432.94
2023-02-03T17:27:56.559Z,98436.59
2023-02-03T17:30:23.241Z,98435.09
2023-02-03T17:32:49.853Z,98443.09
2023-02-03T17:35:16.506Z,98436.38
2023-02-03T17:37:43.102Z,98437.41
2023-02-03T17:53:56.911Z,98434.72
2023-02-03T17:56:24.361Z,98441.91
2023-02-03T17:58:57.911Z,98445.75
2023-02-03T18:01:24.606Z,98453.59
2023-02-03T18:03:52.581Z,98457.09
2023-02-03T18:06:20.144Z,98458.13
2023-02-03T18:08:47.061Z,98455.59
2023-02-03T18:11:13.793Z,98453.72
2023-02-03T18:13:41.707Z,98446.06
2023-02-03T18:16:10.165Z,98437.31
2023-02-03T18:18:36.802Z,98437.00
2023-02-03T18:21:06.549Z,98446.53
2023-02-03T18:23:33.444Z,98449.88
2023-02-03T18:26:00.093Z,98446.84
2023-02-03T18:28:26.719Z,98439.66
2023-02-03T18:31:03.139Z,98442.00
2023-02-03T18:33:29.830Z,98441.69
2023-02-03T18:36:00.096Z,98451.03
2023-02-03T18:38:26.876Z,98445.69
2023-02-03T18:40:53.532Z,98442.34
2023-02-03T18:43:20.637Z,98430.50
2023-02-03T18:45:47.282Z,98433.66
2023-02-03T18:48:13.891Z,98425.28
2023-02-03T18:50:41.475Z,98420.38
2023-02-03T18:53:08.134Z,98410.91
2023-02-03T18:55:34.767Z,98413.53
2023-02-03T18:58:01.465Z,98418.88
2023-02-03T19:00:28.386Z,98431.19
2023-02-03T19:02:55.282Z,98428.34
2023-02-03T19:05:21.949Z,98436.22
2023-02-03T19:07:48.559Z,98437.25
2023-02-03T19:10:15.185Z,98428.75
2023-02-03T19:12:41.848Z,98430.53
2023-02-03T19:15:10.386Z,98427.59
2023-02-03T19:17:37.244Z,98432.28
2023-02-03T19:20:04.779Z,98432.81
2023-02-03T19:22:31.881Z,98427.97
2023-02-03T19:24:58.600Z,98432.34
2023-02-03T19:27:25.298Z,98422.81
2023-02-03T19:29:51.978Z,98432.50
2023-02-03T19:32:18.616Z,98425.69
2023-02-03T19:34:45.240Z,98411.84
2023-02-03T19:37:11.886Z,98414.34
2023-02-03T19:39:38.539Z,98421.22
2023-02-03T19:42:05.253Z,98416.53
2023-02-03T19:44:31.889Z,98422.06
2023-02-03T19:46:58.480Z,98417.75
2023-02-03T19:49:25.105Z,98430.16
2023-02-03T19:51:51.698Z,98430.81
2023-02-03T19:54:18.326Z,98436.84
2023-02-03T19:56:44.973Z,98433.94
2023-02-03T19:59:11.593Z,98434.25
2023-02-03T20:01:38.321Z,98432.19
2023-02-03T20:04:05.061Z,98437.75
2023-02-03T20:06:31.692Z,98437.41
2023-02-03T20:08:58.332Z,98436.03
2023-02-03T20:11:25.022Z,98439.72
2023-02-03T20:13:51.774Z,98438.56
2023-02-03T20:16:18.689Z,98447.38
2023-02-03T20:18:45.540Z,98438.22
2023-02-03T20:21:12.229Z,98442.03
2023-02-03T20:23:38.865Z,98442.34
2023-02-03T20:26:05.940Z,98442.25
2023-02-03T20:28:32.563Z,98445.94
2023-02-03T20:31:00.013Z,98444.06
2023-02-03T20:33:27.878Z,98443.25
2023-02-03T20:35:54.736Z,98430.34
2023-02-03T20:38:21.334Z,98426.88
2023-02-03T20:40:47.963Z,98431.91
2023-02-03T20:43:22.178Z,98428.09
2023-02-03T20:45:49.056Z,98425.72
2023-02-03T20:48:16.599Z,98429.91
2023-02-03T20:50:43.898Z,98438.59
2023-02-03T20:53:13.065Z,98447.41
2023-02-03T20:55:42.453Z,98445.28
2023-02-03T20:58:28.858Z,98451.09
2023-02-03T21:00:55.503Z,98445.94
2023-02-03T21:03:22.152Z,98446.78
2023-02-03T21:05:48.804Z,98444.38
2023-02-03T21:08:19.671Z,98448.50
2023-02-03T21:13:45.852Z,98462.69
2023-02-03T21:16:25.443Z,98466.16
2023-02-03T21:18:56.129Z,98464.13
2023-02-03T21:21:39.317Z,98449.41
2023-02-03T21:24:25.944Z,98450.41
2023-02-03T21:26:53.157Z,98456.59
2023-02-03T21:29:31.692Z,98454.06
2023-02-03T21:31:58.352Z,98452.44
2023-02-03T21:34:31.846Z,98448.03
2023-02-03T21:37:14.068Z,98451.19
2023-02-03T21:39:40.726Z,98447.06
2023-02-03T21:42:28.324Z,98444.59
2023-02-03T21:44:56.400Z,98445.91
2023-02-03T21:47:22.988Z,98436.75
2023-02-03T21:49:49.620Z,98439.09
2023-02-03T21:52:16.330Z,98450.72
2023-02-03T21:54:43.057Z,98445.94
2023-02-03T21:57:15.236Z,98444.78
2023-02-03T21:59:41.975Z,98450.63
2023-02-03T22:02:46.136Z,98461.25
2023-02-03T22:05:16.905Z,98451.66
2023-02-03T22:07:43.694Z,98457.66
2023-02-03T22:10:10.319Z,98459.66
2023-02-03T22:12:36.933Z,98450.88
2023-02-03T22:15:03.951Z,98456.00
2023-02-03T22:17:30.539Z,98456.41
2023-02-03T22:19:57.174Z,98463.72
2023-02-03T22:22:24.165Z,98448.28
2023-02-03T22:24:50.780Z,98454.47
2023-02-03T22:27:17.389Z,98456.34
2023-02-03T22:29:44.018Z,98453.66
2023-02-03T22:32:10.656Z,98449.47
2023-02-03T22:34:37.254Z,98450.28
2023-02-03T22:37:03.891Z,98460.50
2023-02-03T22:39:30.689Z,98461.19
2023-02-03T22:41:57.357Z,98458.53
2023-02-03T22:44:24.013Z,98456.00
2023-02-03T22:46:50.626Z,98453.81
2023-02-03T22:49:17.284Z,98455.34
2023-02-03T22:51:43.916Z,98451.91
2023-02-03T22:54:10.549Z,98452.59
2023-02-03T22:56:37.153Z,98460.13
2023-02-03T22:59:03.841Z,98471.81
2023-02-03T23:01:31.289Z,98473.47
2023-02-03T23:03:57.979Z,98470.72
2023-02-03T23:06:25.607Z,98474.28
2023-02-03T23:08:52.194Z,98486.81
2023-02-03T23:11:18.827Z,98473.03
2023-02-03T23:13:45.572Z,98474.63
2023-02-03T23:16:12.247Z,98474.28
2023-02-03T23:18:38.869Z,98474.06
2023-02-03T23:21:05.643Z,98479.22
2023-02-03T23:23:32.279Z,98480.53
2023-02-03T23:25:58.968Z,98473.38
2023-02-03T23:28:25.686Z,98478.19
2023-02-03T23:30:52.406Z,98483.69
2023-02-03T23:33:19.052Z,98475.44
2023-02-03T23:35:45.808Z,98479.88
2023-02-03T23:38:15.633Z,98482.06
2023-02-03T23:40:42.866Z,98486.81
2023-02-03T23:43:09.606Z,98486.88
2023-02-03T23:45:36.262Z,98490.91
2023-02-03T23:48:02.892Z,98486.81
2023-02-03T23:50:29.908Z,98490.53
2023-02-03T23:52:56.731Z,98489.84
2023-02-03T23:55:23.550Z,98489.41
2023-02-03T23:57:50.368Z,98488.00
